Time;durP1;ratioP1;P1;durP2;ratioP2;P2;SDS_P1;SDS_P2;PMS_P1;PMS_P2;Temp;Humidity;BMP_temperature;BMP_pressure;BME280_temperature;BME280_humidity;BME280_pressure;Samples;Min_cycle;Max_cycle;Signal;HPM_P1;HPM_P2
2022/04/13 00:00:36;;;;;;;35.47;10.35;;;;;;;;;;5124648;28;20031;-64
2022/04/13 00:03:01;;;;;;;31.80;9.23;;;;;;;;;;5126065;28;20774;-64
2022/04/13 00:05:27;;;;;;;53.22;11.25;;;;;;;;;;5126110;28;20117;-64
2022/04/13 00:07:53;;;;;;;26.48;9.75;;;;;;;;;;5126469;28;20494;-64
2022/04/13 00:10:18;;;;;;;24.67;11.00;;;;;;;;;;5125640;28;20043;-64
2022/04/13 00:12:44;;;;;;;29.27;9.13;;;;;;;;;;5126169;28;20042;-65
2022/04/13 00:15:10;;;;;;;23.52;11.25;;;;;;;;;;5125516;28;20081;-64
2022/04/13 00:17:36;;;;;;;40.83;9.52;;;;;;;;;;5106881;28;20060;-64
2022/04/13 00:20:02;;;;;;;35.03;11.68;;;;;;;;;;5124301;28;20039;-64
2022/04/13 00:22:27;;;;;;;27.52;9.95;;;;;;;;;;5105053;28;20058;-64
2022/04/13 00:24:52;;;;;;;27.08;7.20;;;;;;;;;;5126196;28;20069;-64
2022/04/13 00:27:17;;;;;;;33.30;10.82;;;;;;;;;;5125300;28;20466;-63
2022/04/13 00:29:43;;;;;;;36.95;9.60;;;;;;;;;;5125354;27;20547;-64
2022/04/13 00:32:08;;;;;;;28.17;10.35;;;;;;;;;;5126086;28;20147;-64
2022/04/13 00:34:34;;;;;;;15.27;7.47;;;;;;;;;;5126129;28;20078;-64
2022/04/13 00:36:59;;;;;;;18.92;8.57;;;;;;;;;;5125999;28;20099;-64
2022/04/13 00:39:25;;;;;;;34.80;9.05;;;;;;;;;;5125647;28;20599;-64
2022/04/13 00:41:57;;;;;;;9.52;5.40;;;;;;;;;;5125515;28;20494;-63
2022/04/13 00:44:27;;;;;;;41.33;11.27;;;;;;;;;;5125381;28;20479;-64
2022/04/13 00:46:55;;;;;;;46.78;9.15;;;;;;;;;;5124490;28;20670;-64
2022/04/13 00:49:20;;;;;;;31.95;9.88;;;;;;;;;;5124458;28;20302;-64
2022/04/13 00:51:46;;;;;;;29.17;10.20;;;;;;;;;;5124728;28;20622;-63
2022/04/13 00:54:12;;;;;;;14.32;7.22;;;;;;;;;;5125521;28;20497;-64
2022/04/13 00:56:40;;;;;;;9.18;5.60;;;;;;;;;;5124868;28;20630;-64
2022/04/13 00:59:07;;;;;;;34.20;10.55;;;;;;;;;;5124493;28;20115;-64
2022/04/13 01:01:36;;;;;;;18.50;8.68;;;;;;;;;;5123601;28;20035;-64
2022/04/13 01:04:03;;;;;;;16.85;6.55;;;;;;;;;;5125468;28;20130;-64
2022/04/13 01:06:29;;;;;;;41.53;9.25;;;;;;;;;;5125534;28;20161;-64
2022/04/13 01:08:55;;;;;;;16.70;7.82;;;;;;;;;;5124386;28;20142;-64
2022/04/13 01:11:21;;;;;;;20.83;6.53;;;;;;;;;;5125421;28;20065;-64
2022/04/13 01:13:46;;;;;;;16.85;8.13;;;;;;;;;;5124978;28;20051;-64
2022/04/13 01:16:12;;;;;;;15.93;8.23;;;;;;;;;;5125580;28;20055;-64
2022/04/13 01:18:40;;;;;;;34.97;8.75;;;;;;;;;;5125098;28;20099;-64
2022/04/13 01:21:10;;;;;;;19.05;8.48;;;;;;;;;;5123757;28;20104;-64
2022/04/13 01:23:35;;;;;;;27.15;7.15;;;;;;;;;;5124526;28;20126;-64
2022/04/13 01:26:03;;;;;;;33.75;7.40;;;;;;;;;;5125234;28;20756;-64
2022/04/13 01:28:34;;;;;;;20.50;7.72;;;;;;;;;;5125156;28;20050;-64
2022/04/13 01:31:17;;;;;;;14.88;5.65;;;;;;;;;;5123108;28;20761;-64
2022/04/13 01:33:43;;;;;;;20.45;6.97;;;;;;;;;;5124890;28;20095;-64
2022/04/13 01:36:17;;;;;;;23.23;6.70;;;;;;;;;;5125061;28;20047;-64
2022/04/13 01:38:42;;;;;;;7.25;3.38;;;;;;;;;;5119325;28;20047;-64
2022/04/13 01:41:13;;;;;;;21.23;7.15;;;;;;;;;;5124674;27;20432;-64
2022/04/13 01:43:41;;;;;;;21.80;4.43;;;;;;;;;;5123874;28;20130;-64
2022/04/13 01:46:06;;;;;;;11.75;3.88;;;;;;;;;;5128257;28;20122;-64
2022/04/13 01:48:32;;;;;;;7.80;3.10;;;;;;;;;;5127998;28;20449;-64
2022/04/13 01:50:58;;;;;;;16.67;4.57;;;;;;;;;;5128022;28;20047;-64
2022/04/13 01:53:28;;;;;;;11.88;3.33;;;;;;;;;;5127690;28;20051;-64
2022/04/13 01:55:54;;;;;;;15.38;5.72;;;;;;;;;;5128271;28;20111;-64
2022/04/13 01:58:22;;;;;;;10.63;5.55;;;;;;;;;;5128316;28;20039;-64
2022/04/13 02:00:51;;;;;;;13.80;4.18;;;;;;;;;;5126919;28;20042;-64
2022/04/13 02:03:18;;;;;;;9.82;4.10;;;;;;;;;;5127419;28;20043;-65
2022/04/13 02:05:46;;;;;;;22.13;5.68;;;;;;;;;;5128164;28;20245;-64
2022/04/13 02:08:11;;;;;;;20.42;5.68;;;;;;;;;;5126899;28;20067;-64
2022/04/13 02:10:36;;;;;;;5.13;2.53;;;;;;;;;;5127887;28;20457;-64
2022/04/13 02:13:05;;;;;;;9.02;4.07;;;;;;;;;;5128202;28;20047;-64
2022/04/13 02:15:30;;;;;;;14.55;5.13;;;;;;;;;;5128337;28;20173;-64
2022/04/13 02:17:55;;;;;;;13.65;5.13;;;;;;;;;;5128284;28;20078;-63
2022/04/13 02:20:21;;;;;;;25.15;4.28;;;;;;;;;;5127962;28;20124;-64
2022/04/13 02:22:54;;;;;;;15.07;4.50;;;;;;;;;;5127491;28;20092;-64
2022/04/13 02:25:19;;;;;;;4.93;2.33;;;;;;;;;;5127794;28;20549;-63
2022/04/13 02:27:44;;;;;;;22.63;4.88;;;;;;;;;;5127816;28;20055;-64
2022/04/13 02:30:15;;;;;;;23.73;6.57;;;;;;;;;;5127558;28;20046;-64
2022/04/13 02:32:43;;;;;;;30.35;6.30;;;;;;;;;;5128155;28;20133;-64
2022/04/13 02:35:12;;;;;;;18.85;4.53;;;;;;;;;;5126511;28;20085;-65
2022/04/13 02:37:40;;;;;;;17.67;4.88;;;;;;;;;;5127846;28;20054;-64
2022/04/13 02:40:06;;;;;;;19.55;4.60;;;;;;;;;;5127791;28;21095;-64
2022/04/13 02:42:57;;;;;;;10.27;4.65;;;;;;;;;;5127406;28;20043;-64
2022/04/13 02:45:30;;;;;;;31.40;5.97;;;;;;;;;;5126845;28;20184;-65
2022/04/13 02:47:55;;;;;;;10.13;5.35;;;;;;;;;;5127174;28;20099;-64
2022/04/13 02:50:20;;;;;;;13.90;4.18;;;;;;;;;;5106247;28;20047;-65
2022/04/13 02:52:48;;;;;;;10.38;2.92;;;;;;;;;;5127032;27;20027;-64
2022/04/13 02:55:16;;;;;;;8.18;4.30;;;;;;;;;;5126796;28;20038;-63
2022/04/13 02:57:50;;;;;;;15.60;4.70;;;;;;;;;;5126655;28;20043;-63
2022/04/13 03:00:18;;;;;;;22.02;3.05;;;;;;;;;;5126646;28;20135;-63
2022/04/13 03:02:48;;;;;;;10.88;4.53;;;;;;;;;;5127207;28;20043;-64
2022/04/13 03:05:17;;;;;;;15.93;4.78;;;;;;;;;;5126855;28;20050;-63
2022/04/13 03:07:42;;;;;;;11.88;3.25;;;;;;;;;;5128016;28;20074;-64
2022/04/13 03:10:08;;;;;;;15.57;3.50;;;;;;;;;;5127434;28;20566;-63
2022/04/13 03:12:34;;;;;;;13.82;3.95;;;;;;;;;;5127129;28;20043;-64
2022/04/13 03:15:01;;;;;;;10.73;2.92;;;;;;;;;;5127051;28;20362;-64
2022/04/13 03:17:27;;;;;;;7.38;3.50;;;;;;;;;;5126300;28;20066;-64
2022/04/13 03:19:52;;;;;;;18.15;2.63;;;;;;;;;;5124842;28;20064;-64
2022/04/13 03:22:17;;;;;;;9.15;3.80;;;;;;;;;;5127446;28;20058;-64
2022/04/13 03:24:45;;;;;;;7.07;3.08;;;;;;;;;;5126713;28;20035;-64
2022/04/13 03:27:10;;;;;;;10.65;4.15;;;;;;;;;;5126404;28;20039;-64
2022/04/13 03:29:36;;;;;;;8.45;3.72;;;;;;;;;;5125351;28;20050;-65
2022/04/13 03:32:01;;;;;;;15.88;3.88;;;;;;;;;;5126930;28;20108;-64
2022/04/13 03:34:27;;;;;;;11.00;3.85;;;;;;;;;;5126951;28;20047;-65
2022/04/13 03:36:52;;;;;;;5.32;2.90;;;;;;;;;;5126018;28;20042;-63
2022/04/13 03:39:17;;;;;;;6.47;3.85;;;;;;;;;;5126150;28;20499;-64
2022/04/13 03:41:43;;;;;;;12.70;5.15;;;;;;;;;;5126361;28;20035;-64
2022/04/13 03:44:08;;;;;;;6.95;4.38;;;;;;;;;;5125910;28;20037;-64
2022/04/13 03:46:34;;;;;;;9.68;4.35;;;;;;;;;;5126312;28;20045;-64
2022/04/13 03:48:59;;;;;;;8.38;3.63;;;;;;;;;;5125828;28;20050;-64
2022/04/13 03:51:24;;;;;;;11.02;4.38;;;;;;;;;;5126744;28;20047;-64
2022/04/13 03:53:50;;;;;;;12.52;3.50;;;;;;;;;;5105377;28;20047;-64
2022/04/13 03:56:15;;;;;;;5.60;2.80;;;;;;;;;;5125922;28;20582;-64
2022/04/13 03:58:41;;;;;;;5.05;2.95;;;;;;;;;;5126424;28;20051;-64
2022/04/13 04:01:06;;;;;;;9.23;4.00;;;;;;;;;;5125047;28;20454;-65
2022/04/13 04:03:33;;;;;;;21.73;4.38;;;;;;;;;;5126371;28;20475;-64
2022/04/13 04:05:58;;;;;;;7.57;3.28;;;;;;;;;;5125882;27;20046;-64
2022/04/13 04:08:26;;;;;;;9.50;3.08;;;;;;;;;;5125634;28;20039;-64
2022/04/13 04:10:51;;;;;;;11.05;3.75;;;;;;;;;;5126062;28;20047;-64
2022/04/13 04:13:16;;;;;;;12.77;5.65;;;;;;;;;;5126551;28;20103;-65
2022/04/13 04:15:41;;;;;;;12.52;3.35;;;;;;;;;;5126212;28;20054;-64
2022/04/13 04:18:07;;;;;;;15.32;4.50;;;;;;;;;;5126097;28;20233;-64
2022/04/13 04:20:33;;;;;;;9.77;3.78;;;;;;;;;;5125860;28;20043;-64
2022/04/13 04:22:58;;;;;;;5.82;2.38;;;;;;;;;;5126041;28;20078;-65
2022/04/13 04:25:23;;;;;;;22.90;4.63;;;;;;;;;;5126142;28;20753;-64
2022/04/13 04:27:49;;;;;;;14.70;1.80;;;;;;;;;;5125751;28;20066;-65
2022/04/13 04:30:14;;;;;;;5.30;2.72;;;;;;;;;;5125959;28;20473;-65
2022/04/13 04:32:39;;;;;;;13.23;3.63;;;;;;;;;;5126029;28;20116;-65
2022/04/13 04:35:06;;;;;;;4.13;1.73;;;;;;;;;;5127600;27;20050;-64
2022/04/13 04:37:31;;;;;;;8.43;3.22;;;;;;;;;;5124503;28;20119;-64
2022/04/13 04:39:56;;;;;;;6.20;3.38;;;;;;;;;;5125583;28;20087;-65
2022/04/13 04:42:21;;;;;;;5.40;2.85;;;;;;;;;;5126568;27;20103;-64
2022/04/13 04:44:47;;;;;;;4.65;1.98;;;;;;;;;;5125962;28;20490;-64
2022/04/13 04:47:12;;;;;;;6.30;2.55;;;;;;;;;;5125636;28;20047;-64
2022/04/13 04:49:37;;;;;;;15.77;6.70;;;;;;;;;;5124920;28;20047;-65
2022/04/13 04:52:03;;;;;;;13.95;3.83;;;;;;;;;;5125775;28;20085;-64
2022/04/13 04:54:28;;;;;;;10.60;4.53;;;;;;;;;;5124942;28;20054;-64
2022/04/13 04:56:53;;;;;;;5.22;2.15;;;;;;;;;;5125151;28;20058;-65
2022/04/13 04:59:19;;;;;;;16.70;4.90;;;;;;;;;;5125049;28;20047;-65
2022/04/13 05:01:44;;;;;;;8.73;3.35;;;;;;;;;;5125199;28;20572;-64
2022/04/13 05:04:09;;;;;;;14.00;4.68;;;;;;;;;;5124815;28;20039;-66
2022/04/13 05:06:35;;;;;;;8.68;3.42;;;;;;;;;;5105585;28;20043;-66
2022/04/13 05:09:00;;;;;;;16.00;4.72;;;;;;;;;;5124808;28;20524;-60
2022/04/13 05:11:25;;;;;;;11.68;3.88;;;;;;;;;;5125442;28;20049;-65
2022/04/13 05:13:51;;;;;;;12.57;4.30;;;;;;;;;;5106070;28;20470;-60
2022/04/13 05:16:17;;;;;;;15.52;4.60;;;;;;;;;;5125747;27;20039;-60
2022/04/13 05:18:43;;;;;;;20.55;5.97;;;;;;;;;;5128456;28;20058;-60
2022/04/13 05:21:09;;;;;;;10.35;4.45;;;;;;;;;;5128764;28;20035;-60
2022/04/13 05:23:37;;;;;;;11.10;3.63;;;;;;;;;;5128834;28;20031;-60
2022/04/13 05:26:03;;;;;;;7.53;4.70;;;;;;;;;;5128818;28;20039;-61
2022/04/13 05:28:29;;;;;;;8.57;2.28;;;;;;;;;;5129334;28;20481;-60
2022/04/13 05:30:54;;;;;;;4.75;2.30;;;;;;;;;;5128870;28;20035;-60
2022/04/13 05:33:20;;;;;;;6.93;3.08;;;;;;;;;;5124756;27;20279;-61
2022/04/13 05:35:46;;;;;;;9.05;3.65;;;;;;;;;;5128906;27;20406;-59
2022/04/13 05:38:11;;;;;;;5.85;3.28;;;;;;;;;;5126918;28;20115;-59
2022/04/13 05:40:36;;;;;;;7.97;3.55;;;;;;;;;;5127797;28;20031;-60
2022/04/13 05:43:02;;;;;;;8.07;3.30;;;;;;;;;;5128897;28;20498;-60
2022/04/13 05:45:27;;;;;;;23.23;4.60;;;;;;;;;;5127920;28;20096;-59
2022/04/13 05:47:53;;;;;;;6.82;3.67;;;;;;;;;;5128505;28;20181;-59
2022/04/13 05:50:18;;;;;;;6.85;4.05;;;;;;;;;;5128179;28;20043;-59
2022/04/13 05:52:44;;;;;;;9.50;3.60;;;;;;;;;;5127036;28;20564;-59
2022/04/13 05:55:10;;;;;;;9.00;5.43;;;;;;;;;;5127161;28;20059;-59
2022/04/13 05:57:35;;;;;;;11.48;4.30;;;;;;;;;;5125075;28;20049;-59
2022/04/13 06:00:03;;;;;;;10.23;3.08;;;;;;;;;;5126948;28;20039;-60
2022/04/13 06:02:29;;;;;;;4.50;2.50;;;;;;;;;;5126787;28;20498;-59
2022/04/13 06:04:54;;;;;;;9.68;2.45;;;;;;;;;;5126928;28;20101;-59
2022/04/13 06:07:19;;;;;;;6.90;2.88;;;;;;;;;;5127085;28;20047;-59
2022/04/13 06:09:44;;;;;;;9.35;4.85;;;;;;;;;;5126830;28;20458;-59
2022/04/13 06:12:10;;;;;;;8.57;2.78;;;;;;;;;;5127365;28;20474;-59
2022/04/13 06:14:35;;;;;;;3.30;1.95;;;;;;;;;;5128355;28;20130;-60
2022/04/13 06:17:01;;;;;;;5.18;4.03;;;;;;;;;;5128224;28;20422;-59
2022/04/13 06:19:26;;;;;;;8.40;2.80;;;;;;;;;;5126124;28;20039;-60
2022/04/13 06:21:51;;;;;;;18.90;14.68;;;;;;;;;;5127839;28;20035;-60
2022/04/13 06:24:17;;;;;;;15.05;6.63;;;;;;;;;;5127279;28;20146;-59
2022/04/13 06:26:42;;;;;;;9.98;5.93;;;;;;;;;;5126128;28;20430;-59
2022/04/13 06:29:08;;;;;;;9.48;6.00;;;;;;;;;;5127642;27;20054;-60
2022/04/13 06:31:33;;;;;;;16.38;8.35;;;;;;;;;;5127673;28;20051;-60
2022/04/13 06:33:58;;;;;;;13.45;9.52;;;;;;;;;;5128171;28;20042;-59
2022/04/13 06:36:24;;;;;;;8.18;5.90;;;;;;;;;;5127247;28;20051;-60
2022/04/13 06:38:49;;;;;;;7.32;4.88;;;;;;;;;;5127429;28;20051;-60
2022/04/13 06:41:14;;;;;;;11.60;3.83;;;;;;;;;;5127816;28;20043;-58
2022/04/13 06:43:40;;;;;;;4.47;3.95;;;;;;;;;;5127302;28;20376;-59
2022/04/13 06:46:06;;;;;;;7.40;4.30;;;;;;;;;;5126845;28;20098;-58
2022/04/13 06:48:31;;;;;;;4.78;2.13;;;;;;;;;;5126816;28;20061;-58
2022/04/13 06:50:57;;;;;;;8.30;2.83;;;;;;;;;;5127588;28;20051;-40
2022/04/13 06:53:23;;;;;;;7.57;3.03;;;;;;;;;;5127635;28;20047;-41
2022/04/13 06:55:48;;;;;;;7.70;2.65;;;;;;;;;;5126722;28;20050;-43
2022/04/13 06:58:14;;;;;;;3.78;2.42;;;;;;;;;;5126246;28;20421;-46
2022/04/13 07:00:39;;;;;;;7.55;4.05;;;;;;;;;;5127130;28;20058;-45
2022/04/13 07:03:05;;;;;;;4.20;2.15;;;;;;;;;;5127156;28;20498;-43
2022/04/13 07:05:30;;;;;;;4.10;2.97;;;;;;;;;;5127200;28;20130;-47
2022/04/13 07:07:56;;;;;;;3.70;2.20;;;;;;;;;;5127420;28;20049;-43
2022/04/13 07:10:21;;;;;;;5.30;2.42;;;;;;;;;;5127447;28;20055;-46
2022/04/13 07:12:46;;;;;;;5.82;2.40;;;;;;;;;;5127490;28;20497;-43
2022/04/13 07:15:14;;;;;;;4.68;2.53;;;;;;;;;;5127029;28;20047;-51
2022/04/13 07:17:39;;;;;;;1.88;1.50;;;;;;;;;;5127372;28;20055;-53
2022/04/13 07:20:05;;;;;;;3.42;2.03;;;;;;;;;;5127275;28;20395;-46
2022/04/13 07:22:30;;;;;;;5.20;1.75;;;;;;;;;;5127391;28;20035;-50
2022/04/13 07:24:55;;;;;;;9.02;2.25;;;;;;;;;;5127159;28;20043;-54
2022/04/13 07:27:21;;;;;;;3.20;1.83;;;;;;;;;;5127313;28;20514;-47
2022/04/13 07:29:46;;;;;;;4.85;1.98;;;;;;;;;;5125511;28;20038;-49
2022/04/13 07:32:12;;;;;;;5.80;3.05;;;;;;;;;;5126688;28;20054;-49
2022/04/13 07:34:37;;;;;;;6.15;3.03;;;;;;;;;;5127121;28;20039;-49
2022/04/13 07:37:03;;;;;;;14.60;2.90;;;;;;;;;;5125203;28;20050;-56
2022/04/13 07:39:28;;;;;;;3.78;2.72;;;;;;;;;;5125255;27;20063;-50
2022/04/13 07:41:54;;;;;;;5.60;1.77;;;;;;;;;;5126589;28;20182;-47
2022/04/13 07:44:19;;;;;;;3.63;2.33;;;;;;;;;;5126668;28;20158;-57
2022/04/13 07:46:45;;;;;;;8.57;2.85;;;;;;;;;;5126924;28;20490;-54
2022/04/13 07:49:10;;;;;;;7.97;1.75;;;;;;;;;;5126203;28;20153;-50
2022/04/13 07:51:35;;;;;;;12.73;1.92;;;;;;;;;;5126665;28;20039;-58
2022/04/13 07:54:01;;;;;;;15.15;5.78;;;;;;;;;;5126961;28;20075;-49
2022/04/13 07:56:27;;;;;;;17.08;9.15;;;;;;;;;;5125364;28;20528;-50
2022/04/13 07:58:53;;;;;;;19.25;14.40;;;;;;;;;;5125106;28;20047;-50
2022/04/13 08:01:18;;;;;;;35.75;27.83;;;;;;;;;;5126606;28;20513;-50
2022/04/13 08:03:43;;;;;;;42.20;32.80;;;;;;;;;;5126487;28;20054;-55
2022/04/13 08:06:11;;;;;;;42.78;26.20;;;;;;;;;;5126416;28;20047;-51
2022/04/13 08:08:37;;;;;;;24.27;13.70;;;;;;;;;;5125768;28;20564;-50
2022/04/13 08:11:02;;;;;;;11.90;9.23;;;;;;;;;;5126340;28;20126;-50
2022/04/13 08:13:27;;;;;;;10.68;9.02;;;;;;;;;;5125810;28;20505;-52
2022/04/13 08:15:53;;;;;;;8.85;6.55;;;;;;;;;;5126425;28;20429;-49
2022/04/13 08:18:18;;;;;;;10.63;7.18;;;;;;;;;;5125892;28;20067;-59
2022/04/13 08:20:45;;;;;;;15.10;6.63;;;;;;;;;;5126781;28;20144;-61
2022/04/13 08:23:10;;;;;;;8.00;6.28;;;;;;;;;;5126865;28;20129;-57
2022/04/13 08:25:35;;;;;;;16.95;8.18;;;;;;;;;;5126748;28;20575;-61
2022/04/13 08:28:01;;;;;;;12.98;6.88;;;;;;;;;;5126255;28;20054;-58
2022/04/13 08:30:26;;;;;;;20.63;7.68;;;;;;;;;;5125905;28;20054;-60
2022/04/13 08:32:51;;;;;;;14.13;11.85;;;;;;;;;;5126369;28;20130;-57
2022/04/13 08:35:16;;;;;;;9.00;6.50;;;;;;;;;;5125133;28;20047;-60
2022/04/13 08:37:43;;;;;;;22.95;12.57;;;;;;;;;;5126823;28;20047;-58
2022/04/13 08:40:09;;;;;;;16.10;12.40;;;;;;;;;;5124954;28;20053;-57
2022/04/13 08:42:37;;;;;;;21.58;11.85;;;;;;;;;;5126012;28;20043;-60
2022/04/13 08:45:11;;;;;;;10.77;8.02;;;;;;;;;;5125386;28;20062;-60
2022/04/13 08:47:42;;;;;;;9.88;8.23;;;;;;;;;;5125008;28;20494;-60
2022/04/13 08:50:09;;;;;;;21.20;10.80;;;;;;;;;;5126105;28;20047;-60
2022/04/13 08:52:35;;;;;;;7.60;6.85;;;;;;;;;;5128107;27;20618;-59
2022/04/13 08:55:16;;;;;;;16.25;7.68;;;;;;;;;;5129347;28;20489;-59
2022/04/13 08:57:46;;;;;;;9.20;7.93;;;;;;;;;;5129784;28;20320;-57
2022/04/13 09:00:13;;;;;;;27.00;18.23;;;;;;;;;;5129841;28;20054;-60
2022/04/13 09:02:47;;;;;;;12.05;8.50;;;;;;;;;;5128427;28;20224;-61
2022/04/13 09:05:30;;;;;;;16.70;8.10;;;;;;;;;;5128594;28;20063;-62
2022/04/13 09:07:55;;;;;;;13.68;7.50;;;;;;;;;;5128908;28;20624;-61
2022/04/13 09:10:22;;;;;;;11.05;9.93;;;;;;;;;;5129112;28;20047;-59
2022/04/13 09:12:49;;;;;;;19.77;12.00;;;;;;;;;;5128037;28;20049;-59
2022/04/13 09:15:15;;;;;;;27.17;16.92;;;;;;;;;;5128496;28;20084;-60
2022/04/13 09:17:40;;;;;;;17.88;15.27;;;;;;;;;;5128718;28;20055;-57
2022/04/13 09:20:06;;;;;;;31.50;28.67;;;;;;;;;;5128809;28;21175;-58
2022/04/13 09:22:32;;;;;;;22.05;19.75;;;;;;;;;;5128386;28;20039;-59
2022/04/13 09:24:58;;;;;;;24.98;22.70;;;;;;;;;;5127967;28;20043;-61
2022/04/13 09:27:24;;;;;;;32.85;20.67;;;;;;;;;;5125291;28;20123;-58
2022/04/13 09:29:50;;;;;;;16.95;15.25;;;;;;;;;;5128787;28;20104;-61
2022/04/13 09:32:16;;;;;;;14.20;11.07;;;;;;;;;;5128607;28;20588;-59
2022/04/13 09:34:42;;;;;;;20.45;13.05;;;;;;;;;;5128132;28;20104;-61
2022/04/13 09:37:07;;;;;;;15.40;11.88;;;;;;;;;;5094528;28;20064;-59
2022/04/13 09:39:33;;;;;;;21.73;12.52;;;;;;;;;;5128173;28;20577;-57
2022/04/13 09:42:03;;;;;;;14.48;11.27;;;;;;;;;;5125633;28;20107;-58
2022/04/13 09:44:32;;;;;;;12.32;10.65;;;;;;;;;;5126065;28;20099;-50
2022/04/13 09:47:24;;;;;;;11.80;9.73;;;;;;;;;;5127977;28;20184;-54
2022/04/13 09:49:53;;;;;;;16.48;11.38;;;;;;;;;;5117414;28;20050;-48
2022/04/13 09:52:45;;;;;;;13.25;10.02;;;;;;;;;;5127118;28;20058;-52
2022/04/13 09:55:10;;;;;;;14.13;10.57;;;;;;;;;;5121147;28;20047;-51
2022/04/13 09:57:36;;;;;;;10.85;8.52;;;;;;;;;;5127391;28;20055;-49
2022/04/13 10:00:05;;;;;;;17.42;9.93;;;;;;;;;;5127496;28;20464;-52
2022/04/13 10:02:34;;;;;;;17.33;12.50;;;;;;;;;;5126469;27;20035;-49
2022/04/13 10:04:59;;;;;;;23.85;12.07;;;;;;;;;;5125634;28;20055;-50
2022/04/13 10:07:25;;;;;;;16.17;10.43;;;;;;;;;;5127423;28;20054;-46
2022/04/13 10:09:50;;;;;;;15.85;10.98;;;;;;;;;;5127262;28;20039;-49
2022/04/13 10:12:16;;;;;;;10.48;8.20;;;;;;;;;;5127484;28;20569;-48
2022/04/13 10:14:41;;;;;;;8.52;7.10;;;;;;;;;;5127590;28;20031;-51
2022/04/13 10:17:07;;;;;;;10.20;5.40;;;;;;;;;;5126283;28;20078;-49
2022/04/13 10:19:33;;;;;;;6.18;4.07;;;;;;;;;;5126817;28;20036;-52
2022/04/13 10:21:59;;;;;;;8.75;4.72;;;;;;;;;;5127472;28;20071;-50
2022/04/13 10:24:29;;;;;;;6.53;4.47;;;;;;;;;;5127043;28;20555;-51
2022/04/13 10:27:03;;;;;;;13.65;4.47;;;;;;;;;;5127871;28;20134;-47
2022/04/13 10:29:29;;;;;;;13.65;3.67;;;;;;;;;;5126880;28;20071;-54
2022/04/13 10:32:08;;;;;;;14.75;4.38;;;;;;;;;;5126899;28;20581;-50
2022/04/13 10:34:35;;;;;;;14.38;3.95;;;;;;;;;;5126545;28;20402;-48
2022/04/13 10:37:01;;;;;;;6.05;4.28;;;;;;;;;;5125907;28;20047;-51
2022/04/13 10:39:26;;;;;;;7.80;3.70;;;;;;;;;;5126669;28;20092;-50
2022/04/13 10:41:52;;;;;;;6.38;2.47;;;;;;;;;;5127077;28;20413;-48
2022/04/13 10:44:30;;;;;;;17.05;10.43;;;;;;;;;;5126530;28;20043;-48
2022/04/13 10:46:56;;;;;;;66.32;52.15;;;;;;;;;;5127390;28;20058;-56
2022/04/13 10:49:23;;;;;;;75.35;60.65;;;;;;;;;;5127722;28;20058;-54
2022/04/13 10:51:53;;;;;;;58.13;36.85;;;;;;;;;;5127774;28;20082;-53
2022/04/13 10:54:21;;;;;;;30.38;21.60;;;;;;;;;;5127427;28;20066;-56
2022/04/13 10:56:50;;;;;;;33.30;21.50;;;;;;;;;;5127339;28;20047;-52
2022/04/13 10:59:16;;;;;;;32.15;22.08;;;;;;;;;;5126745;28;20099;-48
2022/04/13 11:01:45;;;;;;;20.67;13.60;;;;;;;;;;5127541;28;20659;-48
2022/04/13 11:04:11;;;;;;;9.82;8.82;;;;;;;;;;5127852;28;20031;-51
2022/04/13 11:06:39;;;;;;;13.75;7.43;;;;;;;;;;5126938;28;20051;-55
2022/04/13 11:09:07;;;;;;;12.75;7.95;;;;;;;;;;5127248;28;20039;-52
2022/04/13 11:11:35;;;;;;;21.23;10.38;;;;;;;;;;5127625;28;20055;-53
2022/04/13 11:14:00;;;;;;;18.88;9.57;;;;;;;;;;5127193;27;20054;-56
2022/04/13 11:16:27;;;;;;;22.77;8.02;;;;;;;;;;5127337;28;20047;-52
2022/04/13 11:19:05;;;;;;;14.02;7.40;;;;;;;;;;5126419;28;20082;-52
2022/04/13 11:21:30;;;;;;;16.02;9.13;;;;;;;;;;5127197;28;20059;-50
2022/04/13 11:23:56;;;;;;;10.57;8.35;;;;;;;;;;5127303;28;20116;-57
2022/04/13 11:26:26;;;;;;;12.48;8.57;;;;;;;;;;5126749;28;20416;-53
2022/04/13 11:29:09;;;;;;;12.98;7.45;;;;;;;;;;5125435;28;20050;-54
2022/04/13 11:31:54;;;;;;;8.98;6.28;;;;;;;;;;5126327;28;20050;-51
2022/04/13 11:34:26;;;;;;;11.98;4.47;;;;;;;;;;5126534;28;20047;-51
2022/04/13 11:36:52;;;;;;;13.15;5.50;;;;;;;;;;5126766;28;20424;-48
2022/04/13 11:39:37;;;;;;;11.18;7.22;;;;;;;;;;5126860;28;20054;-49
2022/04/13 11:42:02;;;;;;;16.08;5.88;;;;;;;;;;5126873;28;20123;-47
2022/04/13 11:44:45;;;;;;;20.40;9.48;;;;;;;;;;5126018;28;20070;-56
2022/04/13 11:47:14;;;;;;;35.30;10.20;;;;;;;;;;5123537;28;20526;-55
2022/04/13 11:49:53;;;;;;;13.73;6.97;;;;;;;;;;5123561;28;20035;-50
2022/04/13 11:52:40;;;;;;;16.15;7.90;;;;;;;;;;5125189;28;20409;-51
2022/04/13 11:55:26;;;;;;;23.60;18.63;;;;;;;;;;5123212;28;20058;-52
2022/04/13 11:58:09;;;;;;;25.50;9.70;;;;;;;;;;5109857;28;20593;-48
2022/04/13 12:00:35;;;;;;;15.32;11.40;;;;;;;;;;5123797;28;21938;-40
2022/04/13 12:03:01;;;;;;;12.85;8.70;;;;;;;;;;5125025;28;20051;-42
2022/04/13 12:05:27;;;;;;;11.32;9.68;;;;;;;;;;5122596;28;20081;-45
2022/04/13 12:07:53;;;;;;;17.38;9.57;;;;;;;;;;5124476;28;20094;-41
2022/04/13 12:10:18;;;;;;;23.92;11.40;;;;;;;;;;5125504;28;20118;-42
2022/04/13 12:12:50;;;;;;;15.10;10.50;;;;;;;;;;5126286;28;20130;-40
2022/04/13 12:15:16;;;;;;;14.98;10.50;;;;;;;;;;5126088;28;20035;-40
2022/04/13 12:17:41;;;;;;;25.05;13.60;;;;;;;;;;5126417;28;20043;-44
2022/04/13 12:20:07;;;;;;;15.60;12.68;;;;;;;;;;5125879;28;20079;-41
2022/04/13 12:22:33;;;;;;;15.70;12.68;;;;;;;;;;5126408;28;20047;-44
2022/04/13 12:25:01;;;;;;;15.00;13.02;;;;;;;;;;5126353;28;20045;-43
2022/04/13 12:27:27;;;;;;;17.02;12.68;;;;;;;;;;5126090;27;20498;-41
2022/04/13 12:30:07;;;;;;;10.75;9.07;;;;;;;;;;5126354;28;20051;-53
2022/04/13 12:32:33;;;;;;;14.52;7.68;;;;;;;;;;5122496;28;20078;-53
2022/04/13 12:34:58;;;;;;;23.88;7.75;;;;;;;;;;5125953;28;20190;-51
2022/04/13 12:37:24;;;;;;;13.38;6.78;;;;;;;;;;5126209;28;20043;-53
2022/04/13 12:39:49;;;;;;;17.85;8.48;;;;;;;;;;5126382;28;20406;-53
2022/04/13 12:42:21;;;;;;;20.20;14.20;;;;;;;;;;5126228;28;20494;-53
2022/04/13 12:44:47;;;;;;;21.60;9.15;;;;;;;;;;5125680;28;20501;-52
2022/04/13 12:47:12;;;;;;;13.35;7.32;;;;;;;;;;5126173;28;20058;-54
2022/04/13 12:49:38;;;;;;;8.98;6.65;;;;;;;;;;5126066;28;20046;-53
2022/04/13 12:52:06;;;;;;;6.60;4.47;;;;;;;;;;5126198;28;20043;-53
2022/04/13 12:54:31;;;;;;;6.90;3.70;;;;;;;;;;5125988;28;20043;-50
2022/04/13 12:57:00;;;;;;;5.22;2.75;;;;;;;;;;5125552;28;20726;-49
2022/04/13 12:59:26;;;;;;;19.55;6.55;;;;;;;;;;5125206;28;20132;-53
2022/04/13 13:01:52;;;;;;;13.73;5.55;;;;;;;;;;5126226;28;20070;-53
2022/04/13 13:04:19;;;;;;;8.40;4.13;;;;;;;;;;5126050;28;20095;-53
2022/04/13 13:06:54;;;;;;;15.30;3.42;;;;;;;;;;5126002;28;20031;-54
2022/04/13 13:09:20;;;;;;;10.50;2.28;;;;;;;;;;5125978;28;20088;-53
2022/04/13 13:11:52;;;;;;;19.60;4.53;;;;;;;;;;5125727;28;20413;-53
2022/04/13 13:14:17;;;;;;;;;;;;;;;;;;5126848;28;20034;-52
2022/04/13 13:16:43;;;;;;;4.47;3.75;;;;;;;;;;5125531;28;20414;-48
2022/04/13 13:19:08;;;;;;;8.85;4.72;;;;;;;;;;5126184;28;20051;-49
2022/04/13 13:21:34;;;;;;;11.65;3.83;;;;;;;;;;5126001;28;20092;-54
2022/04/13 13:23:59;;;;;;;11.68;4.35;;;;;;;;;;5125801;28;20066;-50
2022/04/13 13:26:24;;;;;;;20.55;9.82;;;;;;;;;;5124894;28;20035;-53
2022/04/13 13:28:53;;;;;;;9.38;4.15;;;;;;;;;;5126309;28;20050;-53
2022/04/13 13:31:24;;;;;;;10.40;3.17;;;;;;;;;;5125381;28;20134;-49
2022/04/13 13:33:53;;;;;;;11.52;4.55;;;;;;;;;;5125382;28;20138;-52
2022/04/13 13:36:18;;;;;;;12.10;3.90;;;;;;;;;;5124550;28;20043;-53
2022/04/13 13:38:47;;;;;;;9.02;4.50;;;;;;;;;;5127059;27;20080;-50
2022/04/13 13:41:12;;;;;;;7.38;5.35;;;;;;;;;;5127596;28;20039;-53
2022/04/13 13:43:38;;;;;;;25.75;16.05;;;;;;;;;;5129235;28;20042;-53
2022/04/13 13:46:17;;;;;;;15.23;7.47;;;;;;;;;;5090535;28;20044;-51
2022/04/13 13:48:43;;;;;;;42.67;28.92;;;;;;;;;;5129060;28;20498;-50
2022/04/13 13:51:08;;;;;;;14.50;8.48;;;;;;;;;;5128534;28;20119;-53
2022/04/13 13:53:34;;;;;;;14.38;4.65;;;;;;;;;;5128422;28;20039;-51
2022/04/13 13:56:00;;;;;;;14.50;3.90;;;;;;;;;;5128739;28;20059;-51
2022/04/13 13:58:25;;;;;;;6.60;3.83;;;;;;;;;;5129068;28;20050;-53
2022/04/13 14:00:50;;;;;;;11.82;4.72;;;;;;;;;;5109426;28;20558;-52
2022/04/13 14:03:16;;;;;;;6.45;3.20;;;;;;;;;;5127892;28;20039;-49
2022/04/13 14:05:43;;;;;;;8.95;3.10;;;;;;;;;;5126507;28;20047;-51
2022/04/13 14:08:09;;;;;;;11.40;5.45;;;;;;;;;;5128771;28;20035;-51
2022/04/13 14:10:36;;;;;;;12.88;3.95;;;;;;;;;;5128832;28;20043;-51
2022/04/13 14:13:02;;;;;;;8.30;3.50;;;;;;;;;;5128493;28;20062;-52
2022/04/13 14:15:28;;;;;;;14.43;3.97;;;;;;;;;;5127968;28;20047;-52
2022/04/13 14:17:53;;;;;;;9.07;4.88;;;;;;;;;;5127605;28;20039;-53
2022/04/13 14:20:19;;;;;;;15.80;4.63;;;;;;;;;;5127837;28;20138;-50
2022/04/13 14:22:45;;;;;;;3.83;2.63;;;;;;;;;;5128549;28;20035;-51
2022/04/13 14:25:11;;;;;;;19.65;4.90;;;;;;;;;;5127839;28;20082;-50
2022/04/13 14:27:37;;;;;;;10.48;4.25;;;;;;;;;;5128414;28;20039;-53
2022/04/13 14:30:03;;;;;;;10.77;4.63;;;;;;;;;;5128248;28;20050;-54